sensor_id;sensor_type;location;lat;lon;timestamp;pressure;altitude;pressure_sealevel;temperature;humidity
12182;BME280;6154;51.550;12.138;2023-04-05T00:01:15;101389.25;;;6.45;47.15
12182;BME280;6154;51.550;12.138;2023-04-05T00:03:46;101387.53;;;6.44;47.70
12182;BME280;6154;51.550;12.138;2023-04-05T00:06:15;101384.03;;;6.44;47.05
12182;BME280;6154;51.550;12.138;2023-04-05T00:08:43;101385.78;;;6.43;47.37
12182;BME280;6154;51.550;12.138;2023-04-05T00:11:16;101389.41;;;6.38;48.14
12182;BME280;6154;51.550;12.138;2023-04-05T00:13:46;101389.41;;;6.38;48.00
12182;BME280;6154;51.550;12.138;2023-04-05T00:16:14;101387.59;;;6.40;47.87
12182;BME280;6154;51.550;12.138;2023-04-05T00:18:42;101382.34;;;6.40;48.25
12182;BME280;6154;51.550;12.138;2023-04-05T00:21:16;101381.47;;;6.39;47.57
12182;BME280;6154;51.550;12.138;2023-04-05T00:23:44;101370.97;;;6.39;47.34
12182;BME280;6154;51.550;12.138;2023-04-05T00:26:12;101374.47;;;6.40;47.71
12182;BME280;6154;51.550;12.138;2023-04-05T00:28:42;101374.41;;;6.43;47.53
12182;BME280;6154;51.550;12.138;2023-04-05T00:31:11;101370.94;;;6.41;47.34
12182;BME280;6154;51.550;12.138;2023-04-05T00:33:39;101364.81;;;6.40;46.60
12182;BME280;6154;51.550;12.138;2023-04-05T00:36:09;101370.91;;;6.42;47.46
12182;BME280;6154;51.550;12.138;2023-04-05T00:38:38;101366.63;;;6.38;47.13
12182;BME280;6154;51.550;12.138;2023-04-05T00:41:06;101370.09;;;6.39;47.07
12182;BME280;6154;51.550;12.138;2023-04-05T00:43:34;101365.78;;;6.36;47.08
12182;BME280;6154;51.550;12.138;2023-04-05T00:46:03;101358.81;;;6.35;47.75
12182;BME280;6154;51.550;12.138;2023-04-05T00:48:34;101365.87;;;6.33;47.43
12182;BME280;6154;51.550;12.138;2023-04-05T00:51:05;101369.41;;;6.30;47.55
12182;BME280;6154;51.550;12.138;2023-04-05T00:53:37;101361.53;;;6.30;47.36
12182;BME280;6154;51.550;12.138;2023-04-05T00:56:07;101356.25;;;6.30;47.46
12182;BME280;6154;51.550;12.138;2023-04-05T00:58:36;101357.12;;;6.32;46.99
12182;BME280;6154;51.550;12.138;2023-04-05T01:01:09;101363.19;;;6.34;47.13
12182;BME280;6154;51.550;12.138;2023-04-05T01:03:44;101360.56;;;6.34;47.90
12182;BME280;6154;51.550;12.138;2023-04-05T01:06:19;101355.22;;;6.38;47.28
12182;BME280;6154;51.550;12.138;2023-04-05T01:08:57;101360.50;;;6.38;47.36
12182;BME280;6154;51.550;12.138;2023-04-05T01:11:28;101358.66;;;6.41;46.95
12182;BME280;6154;51.550;12.138;2023-04-05T01:13:58;101353.44;;;6.40;47.81
12182;BME280;6154;51.550;12.138;2023-04-05T01:16:27;101357.78;;;6.41;47.60
12182;BME280;6154;51.550;12.138;2023-04-05T01:18:56;101351.66;;;6.40;47.62
12182;BME280;6154;51.550;12.138;2023-04-05T01:21:43;101347.28;;;6.41;47.78
12182;BME280;6154;51.550;12.138;2023-04-05T01:24:28;101349.81;;;6.45;48.11
12182;BME280;6154;51.550;12.138;2023-04-05T01:27:03;101345.50;;;6.43;47.74
12182;BME280;6154;51.550;12.138;2023-04-05T01:29:52;101344.69;;;6.39;47.96
12182;BME280;6154;51.550;12.138;2023-04-05T01:32:38;101340.25;;;6.41;48.34
12182;BME280;6154;51.550;12.138;2023-04-05T01:35:17;101349.03;;;6.42;48.96
12182;BME280;6154;51.550;12.138;2023-04-05T01:37:55;101348.97;;;6.43;48.14
12182;BME280;6154;51.550;12.138;2023-04-05T01:40:24;101340.16;;;6.46;47.64
12182;BME280;6154;51.550;12.138;2023-04-05T01:42:55;101343.69;;;6.45;47.68
12182;BME280;6154;51.550;12.138;2023-04-05T01:45:24;101339.25;;;6.47;47.61
12182;BME280;6154;51.550;12.138;2023-04-05T01:47:53;101334.91;;;6.46;47.53
12182;BME280;6154;51.550;12.138;2023-04-05T01:50:21;101328.66;;;6.51;47.10
12182;BME280;6154;51.550;12.138;2023-04-05T01:52:49;101329.44;;;6.55;47.10
12182;BME280;6154;51.550;12.138;2023-04-05T01:55:18;101335.50;;;6.57;46.99
12182;BME280;6154;51.550;12.138;2023-04-05T01:57:46;101336.38;;;6.57;46.78
12182;BME280;6154;51.550;12.138;2023-04-05T02:00:15;101329.34;;;6.58;46.61
12182;BME280;6154;51.550;12.138;2023-04-05T02:02:45;101325.00;;;6.57;46.45
12182;BME280;6154;51.550;12.138;2023-04-05T02:05:14;101332.06;;;6.55;46.40
12182;BME280;6154;51.550;12.138;2023-04-05T02:07:42;101323.31;;;6.54;46.36
12182;BME280;6154;51.550;12.138;2023-04-05T02:10:11;101329.50;;;6.52;46.31
12182;BME280;6154;51.550;12.138;2023-04-05T02:12:39;101332.19;;;6.49;46.42
12182;BME280;6154;51.550;12.138;2023-04-05T02:15:08;101327.91;;;6.45;46.18
12182;BME280;6154;51.550;12.138;2023-04-05T02:17:38;101330.62;;;6.40;46.47
12182;BME280;6154;51.550;12.138;2023-04-05T02:20:08;101328.09;;;6.37;46.52
12182;BME280;6154;51.550;12.138;2023-04-05T02:22:38;101324.69;;;6.33;46.44
12182;BME280;6154;51.550;12.138;2023-04-05T02:25:07;101323.00;;;6.29;46.49
12182;BME280;6154;51.550;12.138;2023-04-05T02:27:37;101316.97;;;6.26;47.13
12182;BME280;6154;51.550;12.138;2023-04-05T02:30:06;101324.87;;;6.24;46.83
12182;BME280;6154;51.550;12.138;2023-04-05T02:32:35;101317.94;;;6.20;46.75
12182;BME280;6154;51.550;12.138;2023-04-05T02:35:04;101324.19;;;6.16;47.15
12182;BME280;6154;51.550;12.138;2023-04-05T02:37:34;101319.06;;;6.10;46.99
12182;BME280;6154;51.550;12.138;2023-04-05T02:40:05;101320.03;;;6.06;47.05
12182;BME280;6154;51.550;12.138;2023-04-05T02:42:37;101308.75;;;6.01;47.38
12182;BME280;6154;51.550;12.138;2023-04-05T02:45:05;101313.19;;;5.99;47.07
12182;BME280;6154;51.550;12.138;2023-04-05T02:47:34;101306.28;;;5.95;47.17
12182;BME280;6154;51.550;12.138;2023-04-05T02:50:03;101311.59;;;5.92;47.27
12182;BME280;6154;51.550;12.138;2023-04-05T02:52:31;101315.97;;;5.90;47.60
12182;BME280;6154;51.550;12.138;2023-04-05T02:55:02;101320.34;;;5.91;47.70
12182;BME280;6154;51.550;12.138;2023-04-05T02:57:31;101318.59;;;5.93;47.80
12182;BME280;6154;51.550;12.138;2023-04-05T02:59:59;101324.75;;;5.89;48.20
12182;BME280;6154;51.550;12.138;2023-04-05T03:02:28;101317.63;;;5.95;47.64
12182;BME280;6154;51.550;12.138;2023-04-05T03:04:58;101313.25;;;5.96;47.31
12182;BME280;6154;51.550;12.138;2023-04-05T03:07:29;101303.72;;;5.92;47.60
12182;BME280;6154;51.550;12.138;2023-04-05T03:10:00;101309.84;;;5.91;47.75
12182;BME280;6154;51.550;12.138;2023-04-05T03:12:30;101308.91;;;5.95;47.72
12182;BME280;6154;51.550;12.138;2023-04-05T03:14:59;101315.09;;;5.91;47.98
12182;BME280;6154;51.550;12.138;2023-04-05T03:17:31;101307.16;;;5.94;47.80
12182;BME280;6154;51.550;12.138;2023-04-05T03:20:00;101308.94;;;5.93;47.67
12182;BME280;6154;51.550;12.138;2023-04-05T03:22:35;101305.44;;;5.93;47.75
12182;BME280;6154;51.550;12.138;2023-04-05T03:25:04;101308.97;;;5.92;47.73
12182;BME280;6154;51.550;12.138;2023-04-05T03:27:35;101313.31;;;5.93;47.52
12182;BME280;6154;51.550;12.138;2023-04-05T03:30:05;101309.81;;;5.94;47.67
12182;BME280;6154;51.550;12.138;2023-04-05T03:32:34;101315.06;;;5.94;47.90
12182;BME280;6154;51.550;12.138;2023-04-05T03:35:03;101311.47;;;5.96;47.77
12182;BME280;6154;51.550;12.138;2023-04-05T03:37:33;101315.84;;;5.97;47.96
12182;BME280;6154;51.550;12.138;2023-04-05T03:40:01;101314.91;;;6.00;48.34
12182;BME280;6154;51.550;12.138;2023-04-05T03:42:34;101314.91;;;6.00;48.43
12182;BME280;6154;51.550;12.138;2023-04-05T03:45:03;101312.22;;;6.03;48.11
12182;BME280;6154;51.550;12.138;2023-04-05T03:47:33;101308.53;;;6.10;47.91
12182;BME280;6154;51.550;12.138;2023-04-05T03:50:01;101312.84;;;6.14;48.16
12182;BME280;6154;51.550;12.138;2023-04-05T03:52:30;101309.53;;;6.06;49.30
12182;BME280;6154;51.550;12.138;2023-04-05T03:54:58;101309.41;;;6.11;48.85
12182;BME280;6154;51.550;12.138;2023-04-05T03:57:28;101305.88;;;6.13;48.54
12182;BME280;6154;51.550;12.138;2023-04-05T03:59:59;101306.66;;;6.17;48.63
12182;BME280;6154;51.550;12.138;2023-04-05T04:02:29;101308.31;;;6.21;48.66
12182;BME280;6154;51.550;12.138;2023-04-05T04:05:01;101301.16;;;6.27;48.46
12182;BME280;6154;51.550;12.138;2023-04-05T04:07:31;101289.69;;;6.31;48.48
12182;BME280;6154;51.550;12.138;2023-04-05T04:09:59;101303.66;;;6.33;48.78
12182;BME280;6154;51.550;12.138;2023-04-05T04:12:29;101298.31;;;6.37;48.55
12182;BME280;6154;51.550;12.138;2023-04-05T04:14:59;101301.84;;;6.36;48.98
12182;BME280;6154;51.550;12.138;2023-04-05T04:17:30;101303.56;;;6.37;48.67
12182;BME280;6154;51.550;12.138;2023-04-05T04:19:58;101299.94;;;6.41;48.72
12182;BME280;6154;51.550;12.138;2023-04-05T04:22:29;101296.44;;;6.42;48.68
12182;BME280;6154;51.550;12.138;2023-04-05T04:25:02;101301.59;;;6.46;48.83
12182;BME280;6154;51.550;12.138;2023-04-05T04:27:31;101300.63;;;6.49;48.54
12182;BME280;6154;51.550;12.138;2023-04-05T04:30:05;101300.59;;;6.50;48.58
12182;BME280;6154;51.550;12.138;2023-04-05T04:32:38;101294.41;;;6.53;48.51
12182;BME280;6154;51.550;12.138;2023-04-05T04:35:21;101290.81;;;6.57;49.13
12182;BME280;6154;51.550;12.138;2023-04-05T04:37:54;101289.84;;;6.59;49.15
12182;BME280;6154;51.550;12.138;2023-04-05T04:40:27;101289.81;;;6.61;48.77
12182;BME280;6154;51.550;12.138;2023-04-05T04:42:58;101291.59;;;6.60;49.12
12182;BME280;6154;51.550;12.138;2023-04-05T04:45:28;101295.06;;;6.62;49.14
12182;BME280;6154;51.550;12.138;2023-04-05T04:48:03;101289.81;;;6.61;49.36
12182;BME280;6154;51.550;12.138;2023-04-05T04:50:33;101284.47;;;6.66;49.07
12182;BME280;6154;51.550;12.138;2023-04-05T04:53:01;101281.69;;;6.70;48.96
12182;BME280;6154;51.550;12.138;2023-04-05T04:55:30;101287.78;;;6.74;49.31
12182;BME280;6154;51.550;12.138;2023-04-05T04:57:59;101290.19;;;6.81;48.90
12182;BME280;6154;51.550;12.138;2023-04-05T05:00:29;101289.22;;;6.85;49.29
12182;BME280;6154;51.550;12.138;2023-04-05T05:02:57;101295.22;;;6.90;49.30
12182;BME280;6154;51.550;12.138;2023-04-05T05:05:25;101299.47;;;6.96;49.36
12182;BME280;6154;51.550;12.138;2023-04-05T05:07:53;101297.56;;;7.01;49.36
12182;BME280;6154;51.550;12.138;2023-04-05T05:10:21;101299.31;;;7.02;49.56
12182;BME280;6154;51.550;12.138;2023-04-05T05:12:50;101300.22;;;7.00;50.04
12182;BME280;6154;51.550;12.138;2023-04-05T05:15:19;101304.56;;;7.02;49.64
12182;BME280;6154;51.550;12.138;2023-04-05T05:17:49;101302.72;;;7.06;49.57
12182;BME280;6154;51.550;12.138;2023-04-05T05:20:20;101299.13;;;7.08;49.72
12182;BME280;6154;51.550;12.138;2023-04-05T05:22:48;101302.56;;;7.12;50.02
12182;BME280;6154;51.550;12.138;2023-04-05T05:25:17;101303.28;;;7.17;49.76
12182;BME280;6154;51.550;12.138;2023-04-05T05:27:47;101300.50;;;7.23;49.68
12182;BME280;6154;51.550;12.138;2023-04-05T05:30:15;101299.50;;;7.27;49.61
12182;BME280;6154;51.550;12.138;2023-04-05T05:32:43;101294.91;;;7.35;49.48
12182;BME280;6154;51.550;12.138;2023-04-05T05:35:13;101289.44;;;7.41;49.52
12182;BME280;6154;51.550;12.138;2023-04-05T05:37:41;101287.66;;;7.43;49.57
12182;BME280;6154;51.550;12.138;2023-04-05T05:40:10;101290.28;;;7.43;49.70
12182;BME280;6154;51.550;12.138;2023-04-05T05:42:39;101291.91;;;7.47;49.59
12182;BME280;6154;51.550;12.138;2023-04-05T05:45:08;101296.22;;;7.52;49.68
12182;BME280;6154;51.550;12.138;2023-04-05T05:47:37;101301.31;;;7.56;49.62
12182;BME280;6154;51.550;12.138;2023-04-05T05:50:06;101303.91;;;7.58;49.49
12182;BME280;6154;51.550;12.138;2023-04-05T05:52:37;101306.44;;;7.62;49.42
12182;BME280;6154;51.550;12.138;2023-04-05T05:55:06;101302.94;;;7.62;49.49
12182;BME280;6154;51.550;12.138;2023-04-05T05:57:35;101304.66;;;7.63;49.35
12182;BME280;6154;51.550;12.138;2023-04-05T06:00:05;101302.63;;;7.72;49.05
12182;BME280;6154;51.550;12.138;2023-04-05T06:02:37;101299.19;;;7.69;49.56
12182;BME280;6154;51.550;12.138;2023-04-05T06:05:06;101300.88;;;7.71;49.54
12182;BME280;6154;51.550;12.138;2023-04-05T06:07:36;101305.13;;;7.77;49.28
12182;BME280;6154;51.550;12.138;2023-04-05T06:10:06;101295.31;;;7.82;49.47
12182;BME280;6154;51.550;12.138;2023-04-05T06:12:35;101297.00;;;7.85;49.59
12182;BME280;6154;51.550;12.138;2023-04-05T06:15:04;101301.19;;;7.90;49.58
12182;BME280;6154;51.550;12.138;2023-04-05T06:17:32;101301.19;;;7.90;49.88
12182;BME280;6154;51.550;12.138;2023-04-05T06:20:08;101303.84;;;7.90;49.83
12182;BME280;6154;51.550;12.138;2023-04-05T06:22:39;101303.66;;;7.96;49.74
12182;BME280;6154;51.550;12.138;2023-04-05T06:25:08;101301.78;;;8.00;49.75
12182;BME280;6154;51.550;12.138;2023-04-05T06:27:38;101303.34;;;8.07;49.51
12182;BME280;6154;51.550;12.138;2023-04-05T06:30:07;101300.47;;;8.15;49.54
12182;BME280;6154;51.550;12.138;2023-04-05T06:32:35;101299.28;;;8.25;49.33
12182;BME280;6154;51.550;12.138;2023-04-05T06:35:05;101305.25;;;8.30;49.82
12182;BME280;6154;51.550;12.138;2023-04-05T06:37:33;101303.38;;;8.35;49.68
12182;BME280;6154;51.550;12.138;2023-04-05T06:40:03;101297.81;;;8.44;49.50
12182;BME280;6154;51.550;12.138;2023-04-05T06:42:31;101298.50;;;8.49;49.31
12182;BME280;6154;51.550;12.138;2023-04-05T06:45:01;101295.59;;;8.58;49.35
12182;BME280;6154;51.550;12.138;2023-04-05T06:47:32;101300.75;;;8.61;49.11
12182;BME280;6154;51.550;12.138;2023-04-05T06:50:01;101293.66;;;8.63;49.37
12182;BME280;6154;51.550;12.138;2023-04-05T06:52:29;101294.91;;;8.78;49.08
12182;BME280;6154;51.550;12.138;2023-04-05T06:54:57;101295.78;;;8.79;49.06
12182;BME280;6154;51.550;12.138;2023-04-05T06:57:27;101298.84;;;8.93;49.05
12182;BME280;6154;51.550;12.138;2023-04-05T06:59:55;101289.12;;;9.18;48.65
12182;BME280;6154;51.550;12.138;2023-04-05T07:02:24;101290.78;;;9.21;48.55
12182;BME280;6154;51.550;12.138;2023-04-05T07:04:52;101289.12;;;9.43;48.29
12182;BME280;6154;51.550;12.138;2023-04-05T07:07:26;101292.25;;;9.55;48.26
12182;BME280;6154;51.550;12.138;2023-04-05T07:09:54;101292.97;;;9.82;47.90
12182;BME280;6154;51.550;12.138;2023-04-05T07:12:23;101290.81;;;9.93;47.69
12182;BME280;6154;51.550;12.138;2023-04-05T07:14:52;101287.56;;;10.08;47.64
12182;BME280;6154;51.550;12.138;2023-04-05T07:17:21;101287.06;;;10.20;47.55
12182;BME280;6154;51.550;12.138;2023-04-05T07:19:49;101287.50;;;10.33;47.27
12182;BME280;6154;51.550;12.138;2023-04-05T07:22:17;101291.22;;;10.49;47.39
12182;BME280;6154;51.550;12.138;2023-04-05T07:24:46;101277.22;;;10.68;47.23
12182;BME280;6154;51.550;12.138;2023-04-05T07:27:14;101281.84;;;10.84;46.86
12182;BME280;6154;51.550;12.138;2023-04-05T07:29:42;101282.78;;;11.04;46.86
12182;BME280;6154;51.550;12.138;2023-04-05T07:32:15;101272.16;;;11.24;46.98
12182;BME280;6154;51.550;12.138;2023-04-05T07:34:43;101281.66;;;11.48;46.81
12182;BME280;6154;51.550;12.138;2023-04-05T07:37:11;101280.31;;;11.59;46.51
12182;BME280;6154;51.550;12.138;2023-04-05T07:39:39;101277.25;;;11.68;46.75
12182;BME280;6154;51.550;12.138;2023-04-05T07:42:07;101273.06;;;11.83;46.84
12182;BME280;6154;51.550;12.138;2023-04-05T07:44:35;101276.34;;;12.06;46.74
12182;BME280;6154;51.550;12.138;2023-04-05T07:47:04;101274.22;;;12.32;46.32
12182;BME280;6154;51.550;12.138;2023-04-05T07:49:33;101268.97;;;12.49;46.06
12182;BME280;6154;51.550;12.138;2023-04-05T07:52:04;101271.34;;;12.73;45.57
12182;BME280;6154;51.550;12.138;2023-04-05T07:54:32;101273.47;;;12.83;45.20
12182;BME280;6154;51.550;12.138;2023-04-05T07:57:00;101273.84;;;12.93;44.26
12182;BME280;6154;51.550;12.138;2023-04-05T07:59:28;101265.31;;;13.04;44.35
12182;BME280;6154;51.550;12.138;2023-04-05T08:01:57;101265.41;;;13.19;44.09
12182;BME280;6154;51.550;12.138;2023-04-05T08:04:39;101261.09;;;13.34;43.87
12182;BME280;6154;51.550;12.138;2023-04-05T08:07:07;101269.75;;;13.38;42.93
12182;BME280;6154;51.550;12.138;2023-04-05T08:09:35;101265.22;;;13.40;42.72
12182;BME280;6154;51.550;12.138;2023-04-05T08:12:04;101265.78;;;13.62;43.33
12182;BME280;6154;51.550;12.138;2023-04-05T08:14:32;101269.81;;;13.69;42.15
12182;BME280;6154;51.550;12.138;2023-04-05T08:17:00;101270.72;;;13.86;41.79
12182;BME280;6154;51.550;12.138;2023-04-05T08:19:28;101263.53;;;14.03;42.02
12182;BME280;6154;51.550;12.138;2023-04-05T08:21:58;101266.09;;;14.05;41.01
12182;BME280;6154;51.550;12.138;2023-04-05T08:24:26;101266.16;;;14.19;41.57
12182;BME280;6154;51.550;12.138;2023-04-05T08:26:54;101263.50;;;14.19;41.67
12182;BME280;6154;51.550;12.138;2023-04-05T08:29:22;101257.66;;;14.28;42.37
12182;BME280;6154;51.550;12.138;2023-04-05T08:31:50;101259.56;;;14.26;41.40
12182;BME280;6154;51.550;12.138;2023-04-05T08:34:18;101257.41;;;14.33;40.88
12182;BME280;6154;51.550;12.138;2023-04-05T08:36:46;101254.53;;;14.52;40.75
12182;BME280;6154;51.550;12.138;2023-04-05T08:39:16;101252.41;;;14.58;40.16
12182;BME280;6154;51.550;12.138;2023-04-05T08:41:49;101249.84;;;14.71;40.19
12182;BME280;6154;51.550;12.138;2023-04-05T08:44:25;101240.78;;;14.59;37.84
12182;BME280;6154;51.550;12.138;2023-04-05T08:46:55;101246.13;;;14.44;37.11
12182;BME280;6154;51.550;12.138;2023-04-05T08:49:23;101242.28;;;14.79;40.03
12182;BME280;6154;51.550;12.138;2023-04-05T08:51:52;101241.53;;;14.91;39.71
12182;BME280;6154;51.550;12.138;2023-04-05T08:54:22;101247.22;;;15.15;40.03
12182;BME280;6154;51.550;12.138;2023-04-05T08:56:50;101242.53;;;15.19;37.89
12182;BME280;6154;51.550;12.138;2023-04-05T08:59:20;101245.59;;;15.27;39.22
12182;BME280;6154;51.550;12.138;2023-04-05T09:01:49;101247.13;;;15.45;39.01
12182;BME280;6154;51.550;12.138;2023-04-05T09:04:20;101246.38;;;15.58;38.88
12182;BME280;6154;51.550;12.138;2023-04-05T09:06:50;101232.16;;;15.57;38.30
12182;BME280;6154;51.550;12.138;2023-04-05T09:09:19;101241.22;;;15.83;39.58
12182;BME280;6154;51.550;12.138;2023-04-05T09:11:49;101242.91;;;15.98;39.11
12182;BME280;6154;51.550;12.138;2023-04-05T09:14:18;101238.84;;;16.20;38.71
12182;BME280;6154;51.550;12.138;2023-04-05T09:16:47;101239.00;;;16.31;38.68
12182;BME280;6154;51.550;12.138;2023-04-05T09:19:15;101242.75;;;16.41;38.26
12182;BME280;6154;51.550;12.138;2023-04-05T09:22:00;101238.00;;;16.46;38.11
12182;BME280;6154;51.550;12.138;2023-04-05T09:24:31;101234.28;;;16.61;35.11
12182;BME280;6154;51.550;12.138;2023-04-05T09:27:07;101246.31;;;16.69;37.75
12182;BME280;6154;51.550;12.138;2023-04-05T09:29:36;101239.72;;;16.60;34.22
12182;BME280;6154;51.550;12.138;2023-04-05T09:32:06;101240.13;;;16.81;38.01
12182;BME280;6154;51.550;12.138;2023-04-05T09:34:35;101241.09;;;16.80;38.63
12182;BME280;6154;51.550;12.138;2023-04-05T09:37:12;101241.66;;;16.85;38.08
12182;BME280;6154;51.550;12.138;2023-04-05T09:39:41;101246.31;;;16.69;36.45
12182;BME280;6154;51.550;12.138;2023-04-05T09:42:12;101236.53;;;16.28;37.97
12182;BME280;6154;51.550;12.138;2023-04-05T09:44:49;101241.41;;;16.21;38.58
12182;BME280;6154;51.550;12.138;2023-04-05T09:47:18;101237.31;;;16.43;36.78
12182;BME280;6154;51.550;12.138;2023-04-05T09:49:50;101233.53;;;16.59;37.46
12182;BME280;6154;51.550;12.138;2023-04-05T09:52:22;101233.03;;;16.67;38.54
12182;BME280;6154;51.550;12.138;2023-04-05T09:54:53;101233.53;;;16.99;37.58
12182;BME280;6154;51.550;12.138;2023-04-05T09:57:24;101231.38;;;17.30;38.49
12182;BME280;6154;51.550;12.138;2023-04-05T09:59:54;101221.84;;;17.51;37.95
12182;BME280;6154;51.550;12.138;2023-04-05T10:02:23;101223.00;;;17.72;37.72
12182;BME280;6154;51.550;12.138;2023-04-05T10:04:52;101220.03;;;17.64;37.04
12182;BME280;6154;51.550;12.138;2023-04-05T10:07:20;101213.94;;;17.37;35.77
12182;BME280;6154;51.550;12.138;2023-04-05T10:09:48;101223.37;;;17.30;33.15
12182;BME280;6154;51.550;12.138;2023-04-05T10:12:24;101229.47;;;17.19;36.55
12182;BME280;6154;51.550;12.138;2023-04-05T10:14:54;101224.56;;;17.26;35.29
12182;BME280;6154;51.550;12.138;2023-04-05T10:17:26;101224.22;;;17.30;34.96
12182;BME280;6154;51.550;12.138;2023-04-05T10:20:08;101215.31;;;16.91;33.42
12182;BME280;6154;51.550;12.138;2023-04-05T10:22:47;101221.56;;;17.05;31.83
12182;BME280;6154;51.550;12.138;2023-04-05T10:25:24;101224.66;;;17.11;35.01
12182;BME280;6154;51.550;12.138;2023-04-05T10:27:54;101221.09;;;17.49;32.99
12182;BME280;6154;51.550;12.138;2023-04-05T10:30:34;101220.66;;;17.68;36.04
12182;BME280;6154;51.550;12.138;2023-04-05T10:33:13;101222.53;;;17.91;34.13
12182;BME280;6154;51.550;12.138;2023-04-05T10:35:57;101218.38;;;17.87;33.05
12182;BME280;6154;51.550;12.138;2023-04-05T10:38:28;101210.97;;;17.91;33.67
12182;BME280;6154;51.550;12.138;2023-04-05T10:41:04;101210.59;;;17.84;34.33
12182;BME280;6154;51.550;12.138;2023-04-05T10:43:37;101207.38;;;17.53;31.29
12182;BME280;6154;51.550;12.138;2023-04-05T10:46:09;101208.22;;;17.67;35.57
12182;BME280;6154;51.550;12.138;2023-04-05T10:48:43;101201.88;;;17.80;34.89
12182;BME280;6154;51.550;12.138;2023-04-05T10:51:15;101205.19;;;17.97;33.96
12182;BME280;6154;51.550;12.138;2023-04-05T10:53:44;101201.59;;;18.09;36.25
12182;BME280;6154;51.550;12.138;2023-04-05T10:56:15;101199.63;;;18.11;35.67
12182;BME280;6154;51.550;12.138;2023-04-05T10:58:47;101194.62;;;18.30;36.51
12182;BME280;6154;51.550;12.138;2023-04-05T11:01:17;101192.72;;;18.44;35.70
12182;BME280;6154;51.550;12.138;2023-04-05T11:03:48;101189.34;;;18.53;35.12
12182;BME280;6154;51.550;12.138;2023-04-05T11:06:19;101192.09;;;18.64;35.64
12182;BME280;6154;51.550;12.138;2023-04-05T11:08:49;101186.81;;;18.27;35.18
12182;BME280;6154;51.550;12.138;2023-04-05T11:11:18;101198.31;;;17.93;35.27
12182;BME280;6154;51.550;12.138;2023-04-05T11:13:50;101192.91;;;17.69;35.16
12182;BME280;6154;51.550;12.138;2023-04-05T11:16:22;101184.25;;;17.65;34.39
12182;BME280;6154;51.550;12.138;2023-04-05T11:18:51;101182.16;;;17.32;34.03
12182;BME280;6154;51.550;12.138;2023-04-05T11:21:21;101188.47;;;16.93;34.19
12182;BME280;6154;51.550;12.138;2023-04-05T11:24:05;101185.09;;;16.51;33.90
12182;BME280;6154;51.550;12.138;2023-04-05T11:26:55;101189.87;;;16.06;34.18
12182;BME280;6154;51.550;12.138;2023-04-05T11:29:45;101182.72;;;16.07;31.87
12182;BME280;6154;51.550;12.138;2023-04-05T11:32:15;101180.13;;;16.32;35.14
12182;BME280;6154;51.550;12.138;2023-04-05T11:34:44;101178.63;;;16.28;34.54
12182;BME280;6154;51.550;12.138;2023-04-05T11:38:04;101173.72;;;16.35;35.95
12182;BME280;6154;51.550;12.138;2023-04-05T11:40:34;101176.19;;;16.11;30.07
12182;BME280;6154;51.550;12.138;2023-04-05T11:43:04;101174.75;;;16.20;34.70
12182;BME280;6154;51.550;12.138;2023-04-05T11:45:35;101165.37;;;16.27;34.80
12182;BME280;6154;51.550;12.138;2023-04-05T11:48:06;101167.69;;;16.58;35.23
12182;BME280;6154;51.550;12.138;2023-04-05T11:50:35;101169.34;;;17.24;35.63
12182;BME280;6154;51.550;12.138;2023-04-05T11:53:09;101167.34;;;17.52;35.06
12182;BME280;6154;51.550;12.138;2023-04-05T11:55:38;101159.97;;;17.92;33.77
12182;BME280;6154;51.550;12.138;2023-04-05T11:58:11;101158.69;;;18.33;34.79
12182;BME280;6154;51.550;12.138;2023-04-05T12:00:40;101154.94;;;18.35;29.35
12182;BME280;6154;51.550;12.138;2023-04-05T12:03:14;101153.62;;;18.76;33.86
12182;BME280;6154;51.550;12.138;2023-04-05T12:05:49;101157.91;;;19.01;31.51
12182;BME280;6154;51.550;12.138;2023-04-05T12:08:19;101146.78;;;18.83;31.56
12182;BME280;6154;51.550;12.138;2023-04-05T12:10:54;101150.22;;;18.74;33.91
12182;BME280;6154;51.550;12.138;2023-04-05T12:13:31;101149.31;;;18.27;30.34
12182;BME280;6154;51.550;12.138;2023-04-05T12:16:00;101149.53;;;18.00;30.62
12182;BME280;6154;51.550;12.138;2023-04-05T12:18:31;101149.13;;;17.70;34.29
12182;BME280;6154;51.550;12.138;2023-04-05T12:21:01;101147.44;;;17.56;33.03
12182;BME280;6154;51.550;12.138;2023-04-05T12:23:33;101145.53;;;17.45;34.29
12182;BME280;6154;51.550;12.138;2023-04-05T12:26:05;101145.78;;;17.30;34.12
12182;BME280;6154;51.550;12.138;2023-04-05T12:28:50;101144.84;;;17.18;33.54
12182;BME280;6154;51.550;12.138;2023-04-05T12:31:34;101141.06;;;17.20;30.60
12182;BME280;6154;51.550;12.138;2023-04-05T12:34:04;101138.31;;;17.09;30.33
12182;BME280;6154;51.550;12.138;2023-04-05T12:36:35;101139.38;;;17.19;34.29
12182;BME280;6154;51.550;12.138;2023-04-05T12:39:05;101132.00;;;17.10;34.00
12182;BME280;6154;51.550;12.138;2023-04-05T12:41:34;101132.75;;;17.00;33.97
12182;BME280;6154;51.550;12.138;2023-04-05T12:44:04;101124.22;;;16.94;34.56
12182;BME280;6154;51.550;12.138;2023-04-05T12:46:39;101126.97;;;16.93;34.75
12182;BME280;6154;51.550;12.138;2023-04-05T12:49:11;101124.84;;;16.98;33.43
12182;BME280;6154;51.550;12.138;2023-04-05T12:51:43;101121.31;;;16.98;33.35
12182;BME280;6154;51.550;12.138;2023-04-05T12:54:12;101118.75;;;16.96;33.34
12182;BME280;6154;51.550;12.138;2023-04-05T12:56:41;101121.22;;;16.86;34.15
12182;BME280;6154;51.550;12.138;2023-04-05T12:59:09;101117.06;;;16.95;34.40
12182;BME280;6154;51.550;12.138;2023-04-05T13:01:38;101110.41;;;17.01;34.58
12182;BME280;6154;51.550;12.138;2023-04-05T13:04:06;101107.91;;;17.10;34.65
12182;BME280;6154;51.550;12.138;2023-04-05T13:06:44;101105.78;;;17.15;34.41
12182;BME280;6154;51.550;12.138;2023-04-05T13:09:14;101106.44;;;17.06;33.23
12182;BME280;6154;51.550;12.138;2023-04-05T13:11:42;101108.16;;;17.07;34.88
12182;BME280;6154;51.550;12.138;2023-04-05T13:14:10;101101.53;;;17.00;34.53